sensor_id;sensor_type;location;lat;lon;timestamp;P1;durP1;ratioP1;P2;durP2;ratioP2
67049;SDS011;53955;52.442;13.284;2022-07-04T00:01:05;2.90;;;2.17;;
67049;SDS011;53955;52.442;13.284;2022-07-04T00:03:32;3.72;;;2.30;;
67049;SDS011;53955;52.442;13.284;2022-07-04T00:06:00;3.35;;;2.20;;
67049;SDS011;53955;52.442;13.284;2022-07-04T00:08:26;2.45;;;1.95;;
67049;SDS011;53955;52.442;13.284;2022-07-04T00:10:53;3.47;;;2.10;;
67049;SDS011;53955;52.442;13.284;2022-07-04T00:13:19;2.97;;;1.85;;
67049;SDS011;53955;52.442;13.284;2022-07-04T00:15:46;3.08;;;2.03;;
67049;SDS011;53955;52.442;13.284;2022-07-04T00:18:12;2.58;;;1.90;;
67049;SDS011;53955;52.442;13.284;2022-07-04T00:20:39;3.25;;;2.28;;
67049;SDS011;53955;52.442;13.284;2022-07-04T00:23:07;3.63;;;1.85;;
67049;SDS011;53955;52.442;13.284;2022-07-04T00:25:33;2.55;;;1.73;;
67049;SDS011;53955;52.442;13.284;2022-07-04T00:28:00;2.40;;;2.00;;
67049;SDS011;53955;52.442;13.284;2022-07-04T00:30:27;2.85;;;1.70;;
67049;SDS011;53955;52.442;13.284;2022-07-04T00:32:53;2.22;;;1.75;;
67049;SDS011;53955;52.442;13.284;2022-07-04T00:35:20;2.80;;;2.00;;
67049;SDS011;53955;52.442;13.284;2022-07-04T00:37:46;4.60;;;1.98;;
67049;SDS011;53955;52.442;13.284;2022-07-04T00:40:14;2.70;;;2.20;;
67049;SDS011;53955;52.442;13.284;2022-07-04T00:42:41;2.47;;;1.90;;
67049;SDS011;53955;52.442;13.284;2022-07-04T00:45:08;3.47;;;2.35;;
67049;SDS011;53955;52.442;13.284;2022-07-04T00:47:35;3.17;;;1.95;;
67049;SDS011;53955;52.442;13.284;2022-07-04T00:50:02;3.50;;;2.13;;
67049;SDS011;53955;52.442;13.284;2022-07-04T00:52:29;6.03;;;2.42;;
67049;SDS011;53955;52.442;13.284;2022-07-04T00:54:56;4.18;;;2.00;;
67049;SDS011;53955;52.442;13.284;2022-07-04T00:57:26;2.80;;;1.98;;
67049;SDS011;53955;52.442;13.284;2022-07-04T00:59:53;3.22;;;2.33;;
67049;SDS011;53955;52.442;13.284;2022-07-04T01:02:20;4.10;;;1.98;;
67049;SDS011;53955;52.442;13.284;2022-07-04T01:04:46;2.58;;;2.22;;
67049;SDS011;53955;52.442;13.284;2022-07-04T01:07:13;3.70;;;2.03;;
67049;SDS011;53955;52.442;13.284;2022-07-04T01:09:40;2.30;;;2.10;;
67049;SDS011;53955;52.442;13.284;2022-07-04T01:12:07;2.63;;;2.20;;
67049;SDS011;53955;52.442;13.284;2022-07-04T01:14:37;2.55;;;2.20;;
67049;SDS011;53955;52.442;13.284;2022-07-04T01:17:04;3.50;;;2.03;;
67049;SDS011;53955;52.442;13.284;2022-07-04T01:19:30;4.22;;;1.83;;
67049;SDS011;53955;52.442;13.284;2022-07-04T01:21:58;4.05;;;2.15;;
67049;SDS011;53955;52.442;13.284;2022-07-04T01:24:31;3.40;;;1.95;;
67049;SDS011;53955;52.442;13.284;2022-07-04T01:26:57;4.57;;;2.03;;
67049;SDS011;53955;52.442;13.284;2022-07-04T01:29:24;6.18;;;2.92;;
67049;SDS011;53955;52.442;13.284;2022-07-04T01:31:50;4.07;;;2.10;;
67049;SDS011;53955;52.442;13.284;2022-07-04T01:34:18;3.13;;;2.22;;
67049;SDS011;53955;52.442;13.284;2022-07-04T01:36:45;3.20;;;2.25;;
67049;SDS011;53955;52.442;13.284;2022-07-04T01:39:13;2.80;;;2.50;;
67049;SDS011;53955;52.442;13.284;2022-07-04T01:41:39;3.53;;;2.10;;
67049;SDS011;53955;52.442;13.284;2022-07-04T01:44:06;3.30;;;2.20;;
67049;SDS011;53955;52.442;13.284;2022-07-04T01:46:32;2.50;;;2.10;;
67049;SDS011;53955;52.442;13.284;2022-07-04T01:48:59;3.10;;;2.58;;
67049;SDS011;53955;52.442;13.284;2022-07-04T01:51:25;3.60;;;2.33;;
67049;SDS011;53955;52.442;13.284;2022-07-04T01:53:52;2.95;;;2.30;;
67049;SDS011;53955;52.442;13.284;2022-07-04T01:56:20;2.40;;;2.20;;
67049;SDS011;53955;52.442;13.284;2022-07-04T01:58:46;2.92;;;2.60;;
67049;SDS011;53955;52.442;13.284;2022-07-04T02:01:13;8.43;;;2.90;;
67049;SDS011;53955;52.442;13.284;2022-07-04T02:03:57;2.95;;;2.63;;
67049;SDS011;53955;52.442;13.284;2022-07-04T02:06:24;3.92;;;2.83;;
67049;SDS011;53955;52.442;13.284;2022-07-04T02:08:51;4.00;;;2.88;;
67049;SDS011;53955;52.442;13.284;2022-07-04T02:11:37;5.05;;;3.10;;
67049;SDS011;53955;52.442;13.284;2022-07-04T02:14:22;4.32;;;3.08;;
67049;SDS011;53955;52.442;13.284;2022-07-04T02:16:48;3.30;;;3.00;;
67049;SDS011;53955;52.442;13.284;2022-07-04T02:19:15;3.60;;;2.88;;
67049;SDS011;53955;52.442;13.284;2022-07-04T02:21:42;5.18;;;3.55;;
67049;SDS011;53955;52.442;13.284;2022-07-04T02:24:08;3.92;;;3.20;;
67049;SDS011;53955;52.442;13.284;2022-07-04T02:26:36;3.97;;;3.15;;
67049;SDS011;53955;52.442;13.284;2022-07-04T02:29:03;3.38;;;3.03;;
67049;SDS011;53955;52.442;13.284;2022-07-04T02:31:29;3.83;;;3.10;;
67049;SDS011;53955;52.442;13.284;2022-07-04T02:33:56;4.18;;;3.58;;
67049;SDS011;53955;52.442;13.284;2022-07-04T02:36:22;4.50;;;3.70;;
67049;SDS011;53955;52.442;13.284;2022-07-04T02:38:49;4.72;;;3.58;;
67049;SDS011;53955;52.442;13.284;2022-07-04T02:41:16;4.05;;;3.53;;
67049;SDS011;53955;52.442;13.284;2022-07-04T02:43:43;4.57;;;3.63;;
67049;SDS011;53955;52.442;13.284;2022-07-04T02:46:10;5.93;;;3.63;;
67049;SDS011;53955;52.442;13.284;2022-07-04T02:48:36;4.75;;;3.42;;
67049;SDS011;53955;52.442;13.284;2022-07-04T02:51:03;3.95;;;3.15;;
67049;SDS011;53955;52.442;13.284;2022-07-04T02:53:30;5.72;;;3.75;;
67049;SDS011;53955;52.442;13.284;2022-07-04T02:55:56;4.65;;;3.58;;
67049;SDS011;53955;52.442;13.284;2022-07-04T02:58:23;4.85;;;3.97;;
67049;SDS011;53955;52.442;13.284;2022-07-04T03:00:51;4.05;;;3.47;;
67049;SDS011;53955;52.442;13.284;2022-07-04T03:03:17;4.45;;;3.80;;
67049;SDS011;53955;52.442;13.284;2022-07-04T03:05:44;5.93;;;3.42;;
67049;SDS011;53955;52.442;13.284;2022-07-04T03:08:10;5.05;;;3.40;;
67049;SDS011;53955;52.442;13.284;2022-07-04T03:10:37;10.35;;;4.00;;
67049;SDS011;53955;52.442;13.284;2022-07-04T03:13:03;5.28;;;3.67;;
67049;SDS011;53955;52.442;13.284;2022-07-04T03:15:31;5.35;;;3.92;;
67049;SDS011;53955;52.442;13.284;2022-07-04T03:17:59;5.40;;;4.30;;
67049;SDS011;53955;52.442;13.284;2022-07-04T03:20:25;4.82;;;4.28;;
67049;SDS011;53955;52.442;13.284;2022-07-04T03:22:52;4.60;;;3.60;;
67049;SDS011;53955;52.442;13.284;2022-07-04T03:25:19;4.60;;;3.70;;
67049;SDS011;53955;52.442;13.284;2022-07-04T03:27:46;5.70;;;3.45;;
67049;SDS011;53955;52.442;13.284;2022-07-04T03:30:13;4.55;;;4.15;;
67049;SDS011;53955;52.442;13.284;2022-07-04T03:32:40;4.78;;;4.05;;
67049;SDS011;53955;52.442;13.284;2022-07-04T03:35:08;5.47;;;4.43;;
67049;SDS011;53955;52.442;13.284;2022-07-04T03:37:35;5.00;;;4.03;;
67049;SDS011;53955;52.442;13.284;2022-07-04T03:40:02;6.28;;;4.22;;
67049;SDS011;53955;52.442;13.284;2022-07-04T03:42:29;5.38;;;4.18;;
67049;SDS011;53955;52.442;13.284;2022-07-04T03:44:55;5.28;;;4.60;;
67049;SDS011;53955;52.442;13.284;2022-07-04T03:47:22;6.15;;;4.50;;
67049;SDS011;53955;52.442;13.284;2022-07-04T03:49:49;7.25;;;5.07;;
67049;SDS011;53955;52.442;13.284;2022-07-04T03:52:17;5.80;;;4.65;;
67049;SDS011;53955;52.442;13.284;2022-07-04T03:54:43;5.20;;;4.70;;
67049;SDS011;53955;52.442;13.284;2022-07-04T03:57:10;5.22;;;4.63;;
67049;SDS011;53955;52.442;13.284;2022-07-04T03:59:36;8.20;;;4.45;;
67049;SDS011;53955;52.442;13.284;2022-07-04T04:02:03;5.18;;;4.57;;
67049;SDS011;53955;52.442;13.284;2022-07-04T04:04:30;6.25;;;5.22;;
67049;SDS011;53955;52.442;13.284;2022-07-04T04:07:24;6.45;;;4.63;;
67049;SDS011;53955;52.442;13.284;2022-07-04T04:09:51;7.68;;;5.07;;
67049;SDS011;53955;52.442;13.284;2022-07-04T04:12:17;5.60;;;4.82;;
67049;SDS011;53955;52.442;13.284;2022-07-04T04:14:44;6.88;;;4.70;;
67049;SDS011;53955;52.442;13.284;2022-07-04T04:17:10;5.47;;;4.70;;
67049;SDS011;53955;52.442;13.284;2022-07-04T04:19:37;5.57;;;4.30;;
67049;SDS011;53955;52.442;13.284;2022-07-04T04:22:04;6.22;;;4.18;;
67049;SDS011;53955;52.442;13.284;2022-07-04T04:24:31;6.28;;;4.18;;
67049;SDS011;53955;52.442;13.284;2022-07-04T04:26:58;5.03;;;3.85;;
67049;SDS011;53955;52.442;13.284;2022-07-04T04:29:25;6.05;;;4.63;;
67049;SDS011;53955;52.442;13.284;2022-07-04T04:31:51;5.70;;;4.20;;
67049;SDS011;53955;52.442;13.284;2022-07-04T04:34:18;6.10;;;4.13;;
67049;SDS011;53955;52.442;13.284;2022-07-04T04:36:44;6.20;;;4.00;;
67049;SDS011;53955;52.442;13.284;2022-07-04T04:39:11;6.07;;;3.92;;
67049;SDS011;53955;52.442;13.284;2022-07-04T04:41:39;6.00;;;4.45;;
67049;SDS011;53955;52.442;13.284;2022-07-04T04:44:06;5.78;;;4.15;;
67049;SDS011;53955;52.442;13.284;2022-07-04T04:46:33;7.10;;;3.83;;
67049;SDS011;53955;52.442;13.284;2022-07-04T04:48:59;6.95;;;4.18;;
67049;SDS011;53955;52.442;13.284;2022-07-04T04:51:26;6.70;;;4.20;;
67049;SDS011;53955;52.442;13.284;2022-07-04T04:53:52;4.80;;;3.35;;
67049;SDS011;53955;52.442;13.284;2022-07-04T04:56:19;4.43;;;3.28;;
67049;SDS011;53955;52.442;13.284;2022-07-04T04:58:47;4.20;;;3.20;;
67049;SDS011;53955;52.442;13.284;2022-07-04T05:01:13;4.95;;;2.85;;
67049;SDS011;53955;52.442;13.284;2022-07-04T05:03:40;5.60;;;3.27;;
67049;SDS011;53955;52.442;13.284;2022-07-04T05:06:07;4.25;;;2.60;;
67049;SDS011;53955;52.442;13.284;2022-07-04T05:08:34;4.15;;;2.55;;
67049;SDS011;53955;52.442;13.284;2022-07-04T05:11:00;3.55;;;2.50;;
67049;SDS011;53955;52.442;13.284;2022-07-04T05:13:27;3.40;;;2.40;;
67049;SDS011;53955;52.442;13.284;2022-07-04T05:15:55;4.20;;;2.10;;
67049;SDS011;53955;52.442;13.284;2022-07-04T05:18:22;3.55;;;2.22;;
67049;SDS011;53955;52.442;13.284;2022-07-04T05:20:49;5.03;;;2.30;;
67049;SDS011;53955;52.442;13.284;2022-07-04T05:23:15;2.22;;;1.73;;
67049;SDS011;53955;52.442;13.284;2022-07-04T05:25:42;7.28;;;2.00;;
67049;SDS011;53955;52.442;13.284;2022-07-04T05:28:09;3.45;;;1.90;;
67049;SDS011;53955;52.442;13.284;2022-07-04T05:30:35;3.80;;;2.00;;
67049;SDS011;53955;52.442;13.284;2022-07-04T05:33:03;3.50;;;2.15;;
67049;SDS011;53955;52.442;13.284;2022-07-04T05:35:30;4.60;;;2.13;;
67049;SDS011;53955;52.442;13.284;2022-07-04T05:37:56;2.88;;;1.92;;
67049;SDS011;53955;52.442;13.284;2022-07-04T05:40:23;2.95;;;1.80;;
67049;SDS011;53955;52.442;13.284;2022-07-04T05:42:50;1.80;;;1.42;;
67049;SDS011;53955;52.442;13.284;2022-07-04T05:45:16;4.88;;;1.55;;
67049;SDS011;53955;52.442;13.284;2022-07-04T05:47:43;2.92;;;1.60;;
67049;SDS011;53955;52.442;13.284;2022-07-04T05:50:11;3.35;;;1.75;;
67049;SDS011;53955;52.442;13.284;2022-07-04T05:52:38;2.63;;;1.17;;
67049;SDS011;53955;52.442;13.284;2022-07-04T05:55:05;3.97;;;1.23;;
67049;SDS011;53955;52.442;13.284;2022-07-04T05:57:32;3.40;;;1.10;;
67049;SDS011;53955;52.442;13.284;2022-07-04T05:59:59;5.32;;;1.13;;
67049;SDS011;53955;52.442;13.284;2022-07-04T06:02:26;2.28;;;1.20;;
67049;SDS011;53955;52.442;13.284;2022-07-04T06:04:52;2.58;;;1.00;;
67049;SDS011;53955;52.442;13.284;2022-07-04T06:07:20;2.17;;;0.93;;
67049;SDS011;53955;52.442;13.284;2022-07-04T06:09:47;1.42;;;0.80;;
67049;SDS011;53955;52.442;13.284;2022-07-04T06:12:13;2.13;;;0.82;;
67049;SDS011;53955;52.442;13.284;2022-07-04T06:14:40;4.70;;;0.80;;
67049;SDS011;53955;52.442;13.284;2022-07-04T06:17:06;1.60;;;0.70;;
67049;SDS011;53955;52.442;13.284;2022-07-04T06:19:33;0.98;;;0.77;;
67049;SDS011;53955;52.442;13.284;2022-07-04T06:22:00;2.88;;;0.80;;
67049;SDS011;53955;52.442;13.284;2022-07-04T06:24:27;2.88;;;0.98;;
67049;SDS011;53955;52.442;13.284;2022-07-04T06:26:54;1.38;;;0.70;;
67049;SDS011;53955;52.442;13.284;2022-07-04T06:29:21;1.67;;;0.85;;
67049;SDS011;53955;52.442;13.284;2022-07-04T06:31:47;1.92;;;0.70;;
67049;SDS011;53955;52.442;13.284;2022-07-04T06:34:14;2.28;;;0.68;;
67049;SDS011;53955;52.442;13.284;2022-07-04T06:36:58;1.77;;;0.90;;
67049;SDS011;53955;52.442;13.284;2022-07-04T06:39:25;1.77;;;0.80;;
67049;SDS011;53955;52.442;13.284;2022-07-04T06:41:53;1.15;;;0.63;;
67049;SDS011;53955;52.442;13.284;2022-07-04T06:44:19;1.35;;;0.90;;
67049;SDS011;53955;52.442;13.284;2022-07-04T06:46:46;1.55;;;0.95;;
67049;SDS011;53955;52.442;13.284;2022-07-04T06:49:12;1.40;;;0.60;;
67049;SDS011;53955;52.442;13.284;2022-07-04T06:51:39;2.65;;;0.63;;
67049;SDS011;53955;52.442;13.284;2022-07-04T06:54:05;2.25;;;0.90;;
67049;SDS011;53955;52.442;13.284;2022-07-04T06:56:32;1.20;;;0.70;;
67049;SDS011;53955;52.442;13.284;2022-07-04T06:59:00;2.45;;;0.85;;
67049;SDS011;53955;52.442;13.284;2022-07-04T07:01:28;1.52;;;0.80;;
67049;SDS011;53955;52.442;13.284;2022-07-04T07:03:54;1.42;;;0.88;;
67049;SDS011;53955;52.442;13.284;2022-07-04T07:06:21;2.28;;;1.27;;
67049;SDS011;53955;52.442;13.284;2022-07-04T07:08:48;1.98;;;1.10;;
67049;SDS011;53955;52.442;13.284;2022-07-04T07:11:15;1.52;;;1.10;;
67049;SDS011;53955;52.442;13.284;2022-07-04T07:13:45;2.08;;;1.20;;
67049;SDS011;53955;52.442;13.284;2022-07-04T07:16:14;2.90;;;1.10;;
67049;SDS011;53955;52.442;13.284;2022-07-04T07:18:41;2.70;;;0.80;;
67049;SDS011;53955;52.442;13.284;2022-07-04T07:21:09;2.30;;;0.90;;
67049;SDS011;53955;52.442;13.284;2022-07-04T07:23:37;3.25;;;0.90;;
67049;SDS011;53955;52.442;13.284;2022-07-04T07:26:04;3.85;;;1.00;;
67049;SDS011;53955;52.442;13.284;2022-07-04T07:28:30;2.63;;;0.80;;
67049;SDS011;53955;52.442;13.284;2022-07-04T07:30:57;1.52;;;0.70;;
67049;SDS011;53955;52.442;13.284;2022-07-04T07:33:25;1.30;;;0.70;;
67049;SDS011;53955;52.442;13.284;2022-07-04T07:35:51;1.08;;;0.70;;
67049;SDS011;53955;52.442;13.284;2022-07-04T07:38:18;2.45;;;0.90;;
67049;SDS011;53955;52.442;13.284;2022-07-04T07:40:45;1.80;;;0.80;;
67049;SDS011;53955;52.442;13.284;2022-07-04T07:43:11;2.67;;;0.80;;
67049;SDS011;53955;52.442;13.284;2022-07-04T07:45:38;2.53;;;0.70;;
67049;SDS011;53955;52.442;13.284;2022-07-04T07:48:04;2.33;;;0.80;;
67049;SDS011;53955;52.442;13.284;2022-07-04T07:50:33;1.52;;;0.68;;
67049;SDS011;53955;52.442;13.284;2022-07-04T07:53:00;2.88;;;0.80;;
67049;SDS011;53955;52.442;13.284;2022-07-04T07:55:26;1.77;;;0.80;;
67049;SDS011;53955;52.442;13.284;2022-07-04T07:57:53;1.63;;;0.77;;
67049;SDS011;53955;52.442;13.284;2022-07-04T08:00:19;1.20;;;0.70;;
67049;SDS011;53955;52.442;13.284;2022-07-04T08:02:46;1.75;;;0.82;;
67049;SDS011;53955;52.442;13.284;2022-07-04T08:05:30;1.00;;;0.75;;
67049;SDS011;53955;52.442;13.284;2022-07-04T08:07:58;0.95;;;0.57;;
67049;SDS011;53955;52.442;13.284;2022-07-04T08:10:25;3.67;;;0.75;;
67049;SDS011;53955;52.442;13.284;2022-07-04T08:12:52;1.52;;;0.55;;
67049;SDS011;53955;52.442;13.284;2022-07-04T08:15:18;1.73;;;1.02;;
67049;SDS011;53955;52.442;13.284;2022-07-04T08:17:45;1.80;;;0.80;;
67049;SDS011;53955;52.442;13.284;2022-07-04T08:20:11;1.05;;;0.60;;
67049;SDS011;53955;52.442;13.284;2022-07-04T08:22:38;2.38;;;0.90;;
67049;SDS011;53955;52.442;13.284;2022-07-04T08:25:06;1.70;;;0.68;;
67049;SDS011;53955;52.442;13.284;2022-07-04T08:27:33;1.38;;;0.57;;
67049;SDS011;53955;52.442;13.284;2022-07-04T08:30:00;1.55;;;0.77;;
67049;SDS011;53955;52.442;13.284;2022-07-04T08:32:26;2.05;;;0.80;;
67049;SDS011;53955;52.442;13.284;2022-07-04T08:34:53;1.73;;;0.82;;
67049;SDS011;53955;52.442;13.284;2022-07-04T08:37:20;1.73;;;1.00;;
67049;SDS011;53955;52.442;13.284;2022-07-04T08:39:48;1.75;;;1.00;;
67049;SDS011;53955;52.442;13.284;2022-07-04T08:42:17;1.25;;;0.65;;
67049;SDS011;53955;52.442;13.284;2022-07-04T08:44:45;2.35;;;0.60;;
67049;SDS011;53955;52.442;13.284;2022-07-04T08:47:15;1.13;;;0.60;;
67049;SDS011;53955;52.442;13.284;2022-07-04T08:49:44;2.65;;;0.90;;
67049;SDS011;53955;52.442;13.284;2022-07-04T08:52:18;2.65;;;1.00;;
67049;SDS011;53955;52.442;13.284;2022-07-04T08:54:57;3.25;;;0.80;;
67049;SDS011;53955;52.442;13.284;2022-07-04T08:57:43;2.70;;;0.73;;
67049;SDS011;53955;52.442;13.284;2022-07-04T09:00:29;0.82;;;0.70;;
67049;SDS011;53955;52.442;13.284;2022-07-04T09:02:56;1.40;;;0.73;;
67049;SDS011;53955;52.442;13.284;2022-07-04T09:05:24;3.88;;;0.90;;
67049;SDS011;53955;52.442;13.284;2022-07-04T09:07:51;4.47;;;0.90;;
67049;SDS011;53955;52.442;13.284;2022-07-04T09:10:18;1.92;;;0.93;;
67049;SDS011;53955;52.442;13.284;2022-07-04T09:12:47;2.10;;;0.80;;
67049;SDS011;53955;52.442;13.284;2022-07-04T09:15:15;0.98;;;0.73;;
67049;SDS011;53955;52.442;13.284;2022-07-04T09:17:42;1.63;;;0.73;;
67049;SDS011;53955;52.442;13.284;2022-07-04T09:20:12;0.98;;;0.43;;
67049;SDS011;53955;52.442;13.284;2022-07-04T09:22:40;2.05;;;0.73;;
67049;SDS011;53955;52.442;13.284;2022-07-04T09:25:08;1.83;;;0.80;;
67049;SDS011;53955;52.442;13.284;2022-07-04T09:27:38;1.08;;;0.40;;
67049;SDS011;53955;52.442;13.284;2022-07-04T09:30:08;2.95;;;0.93;;
67049;SDS011;53955;52.442;13.284;2022-07-04T09:32:36;1.17;;;0.80;;
67049;SDS011;53955;52.442;13.284;2022-07-04T09:35:05;3.55;;;0.70;;
67049;SDS011;53955;52.442;13.284;2022-07-04T09:37:35;1.45;;;0.57;;
67049;SDS011;53955;52.442;13.284;2022-07-04T09:40:04;2.42;;;0.90;;
67049;SDS011;53955;52.442;13.284;2022-07-04T09:42:38;2.67;;;0.68;;
67049;SDS011;53955;52.442;13.284;2022-07-04T09:45:09;1.60;;;0.82;;
67049;SDS011;53955;52.442;13.284;2022-07-04T09:47:37;1.42;;;0.50;;
67049;SDS011;53955;52.442;13.284;2022-07-04T09:50:05;1.55;;;0.80;;
67049;SDS011;53955;52.442;13.284;2022-07-04T09:52:43;3.22;;;0.60;;
67049;SDS011;53955;52.442;13.284;2022-07-04T09:55:21;1.10;;;0.70;;
67049;SDS011;53955;52.442;13.284;2022-07-04T09:57:50;1.08;;;0.57;;
67049;SDS011;53955;52.442;13.284;2022-07-04T10:00:20;2.00;;;0.80;;
67049;SDS011;53955;52.442;13.284;2022-07-04T10:02:48;2.72;;;0.50;;
67049;SDS011;53955;52.442;13.284;2022-07-04T10:05:22;1.45;;;0.77;;
67049;SDS011;53955;52.442;13.284;2022-07-04T10:07:51;2.80;;;1.13;;
67049;SDS011;53955;52.442;13.284;2022-07-04T10:10:26;1.38;;;0.65;;
67049;SDS011;53955;52.442;13.284;2022-07-04T10:12:56;2.22;;;0.82;;
67049;SDS011;53955;52.442;13.284;2022-07-04T10:15:25;2.00;;;0.60;;
67049;SDS011;53955;52.442;13.284;2022-07-04T10:17:52;2.05;;;0.73;;
67049;SDS011;53955;52.442;13.284;2022-07-04T10:20:18;1.98;;;0.90;;
67049;SDS011;53955;52.442;13.284;2022-07-04T10:22:45;2.15;;;0.47;;
67049;SDS011;53955;52.442;13.284;2022-07-04T10:25:12;1.50;;;0.80;;
67049;SDS011;53955;52.442;13.284;2022-07-04T10:27:38;3.35;;;0.55;;
67049;SDS011;53955;52.442;13.284;2022-07-04T10:30:06;1.25;;;0.60;;
67049;SDS011;53955;52.442;13.284;2022-07-04T10:32:37;1.35;;;0.70;;
67049;SDS011;53955;52.442;13.284;2022-07-04T10:35:04;2.13;;;0.75;;
67049;SDS011;53955;52.442;13.284;2022-07-04T10:40:43;0.73;;;0.60;;
67049;SDS011;53955;52.442;13.284;2022-07-04T10:46:26;1.10;;;0.60;;
67049;SDS011;53955;52.442;13.284;2022-07-04T10:48:56;1.38;;;0.57;;
67049;SDS011;53955;52.442;13.284;2022-07-04T10:51:38;1.70;;;0.80;;
67049;SDS011;53955;52.442;13.284;2022-07-04T10:54:07;0.95;;;0.70;;
67049;SDS011;53955;52.442;13.284;2022-07-04T10:56:36;1.30;;;0.65;;
67049;SDS011;53955;52.442;13.284;2022-07-04T10:59:09;1.13;;;0.70;;
67049;SDS011;53955;52.442;13.284;2022-07-04T11:01:38;1.45;;;0.65;;
67049;SDS011;53955;52.442;13.284;2022-07-04T11:04:06;1.48;;;0.60;;
67049;SDS011;53955;52.442;13.284;2022-07-04T11:06:51;1.50;;;0.63;;
67049;SDS011;53955;52.442;13.284;2022-07-04T11:09:21;1.58;;;0.50;;
67049;SDS011;53955;52.442;13.284;2022-07-04T11:11:49;1.67;;;0.90;;
67049;SDS011;53955;52.442;13.284;2022-07-04T11:14:29;1.85;;;0.80;;
67049;SDS011;53955;52.442;13.284;2022-07-04T11:16:57;1.63;;;0.73;;
67049;SDS011;53955;52.442;13.284;2022-07-04T11:19:25;0.80;;;0.50;;
67049;SDS011;53955;52.442;13.284;2022-07-04T11:21:52;1.10;;;0.50;;
67049;SDS011;53955;52.442;13.284;2022-07-04T11:24:19;0.80;;;0.60;;
67049;SDS011;53955;52.442;13.284;2022-07-04T11:26:46;1.60;;;0.68;;
67049;SDS011;53955;52.442;13.284;2022-07-04T11:29:13;1.42;;;0.50;;
67049;SDS011;53955;52.442;13.284;2022-07-04T11:31:41;1.48;;;0.60;;
67049;SDS011;53955;52.442;13.284;2022-07-04T11:34:08;2.00;;;0.80;;
67049;SDS011;53955;52.442;13.284;2022-07-04T11:36:37;3.38;;;1.15;;
67049;SDS011;53955;52.442;13.284;2022-07-04T11:39:05;1.67;;;0.60;;
67049;SDS011;53955;52.442;13.284;2022-07-04T11:41:33;2.25;;;0.80;;
67049;SDS011;53955;52.442;13.284;2022-07-04T11:44:20;1.90;;;1.00;;
67049;SDS011;53955;52.442;13.284;2022-07-04T11:47:10;1.30;;;0.68;;
67049;SDS011;53955;52.442;13.284;2022-07-04T11:49:47;1.15;;;0.52;;
67049;SDS011;53955;52.442;13.284;2022-07-04T11:52:15;3.75;;;0.88;;
67049;SDS011;53955;52.442;13.284;2022-07-04T11:54:44;2.40;;;0.60;;
67049;SDS011;53955;52.442;13.284;2022-07-04T11:57:13;1.05;;;0.80;;
67049;SDS011;53955;52.442;13.284;2022-07-04T11:59:42;2.47;;;0.68;;
67049;SDS011;53955;52.442;13.284;2022-07-04T12:02:10;1.50;;;0.75;;
67049;SDS011;53955;52.442;13.284;2022-07-04T12:04:37;2.25;;;0.65;;
67049;SDS011;53955;52.442;13.284;2022-07-04T12:07:11;1.52;;;0.73;;
67049;SDS011;53955;52.442;13.284;2022-07-04T12:09:38;1.02;;;0.70;;
67049;SDS011;53955;52.442;13.284;2022-07-04T12:12:06;1.83;;;0.90;;
67049;SDS011;53955;52.442;13.284;2022-07-04T12:14:33;1.85;;;0.63;;
67049;SDS011;53955;52.442;13.284;2022-07-04T12:17:10;1.92;;;0.65;;
67049;SDS011;53955;52.442;13.284;2022-07-04T12:19:38;2.65;;;0.73;;
67049;SDS011;53955;52.442;13.284;2022-07-04T12:22:24;2.20;;;0.82;;
67049;SDS011;53955;52.442;13.284;2022-07-04T12:24:52;2.95;;;0.50;;
67049;SDS011;53955;52.442;13.284;2022-07-04T12:27:19;2.10;;;0.60;;
67049;SDS011;53955;52.442;13.284;2022-07-04T12:29:46;1.98;;;0.60;;
67049;SDS011;53955;52.442;13.284;2022-07-04T12:32:13;1.00;;;0.63;;
67049;SDS011;53955;52.442;13.284;2022-07-04T12:34:40;1.13;;;0.60;;
67049;SDS011;53955;52.442;13.284;2022-07-04T12:37:07;0.60;;;0.40;;
67049;SDS011;53955;52.442;13.284;2022-07-04T12:39:37;1.67;;;0.52;;
67049;SDS011;53955;52.442;13.284;2022-07-04T12:42:06;2.53;;;0.70;;
67049;SDS011;53955;52.442;13.284;2022-07-04T12:44:34;2.97;;;1.02;;
67049;SDS011;53955;52.442;13.284;2022-07-04T12:47:02;1.17;;;0.60;;
67049;SDS011;53955;52.442;13.284;2022-07-04T12:49:29;2.63;;;0.55;;
67049;SDS011;53955;52.442;13.284;2022-07-04T12:52:03;3.65;;;0.95;;
67049;SDS011;53955;52.442;13.284;2022-07-04T12:54:31;1.65;;;0.50;;
67049;SDS011;53955;52.442;13.284;2022-07-04T12:57:09;3.90;;;0.60;;
67049;SDS011;53955;52.442;13.284;2022-07-04T12:59:38;1.95;;;0.73;;
67049;SDS011;53955;52.442;13.284;2022-07-04T13:02:05;1.20;;;0.60;;
67049;SDS011;53955;52.442;13.284;2022-07-04T13:04:32;2.13;;;0.70;;
67049;SDS011;53955;52.442;13.284;2022-07-04T13:07:00;1.73;;;0.73;;
67049;SDS011;53955;52.442;13.284;2022-07-04T13:09:38;1.27;;;0.75;;
67049;SDS011;53955;52.442;13.284;2022-07-04T13:12:05;3.22;;;0.90;;
67049;SDS011;53955;52.442;13.284;2022-07-04T13:14:52;0.73;;;0.60;;
67049;SDS011;53955;52.442;13.284;2022-07-04T13:17:19;1.10;;;0.60;;
67049;SDS011;53955;52.442;13.284;2022-07-04T13:19:46;6.00;;;0.80;;
67049;SDS011;53955;52.442;13.284;2022-07-04T13:22:13;2.05;;;0.93;;
67049;SDS011;53955;52.442;13.284;2022-07-04T13:24:39;2.30;;;1.10;;
67049;SDS011;53955;52.442;13.284;2022-07-04T13:27:06;3.13;;;0.70;;
67049;SDS011;53955;52.442;13.284;2022-07-04T13:29:33;2.05;;;0.55;;
67049;SDS011;53955;52.442;13.284;2022-07-04T13:32:01;1.15;;;0.63;;
67049;SDS011;53955;52.442;13.284;2022-07-04T13:34:29;1.83;;;0.68;;
67049;SDS011;53955;52.442;13.284;2022-07-04T13:36:55;3.33;;;0.60;;
67049;SDS011;53955;52.442;13.284;2022-07-04T13:39:22;1.20;;;0.47;;
67049;SDS011;53955;52.442;13.284;2022-07-04T13:41:49;1.67;;;0.60;;
67049;SDS011;53955;52.442;13.284;2022-07-04T13:44:16;1.52;;;0.63;;
67049;SDS011;53955;52.442;13.284;2022-07-04T13:46:42;2.95;;;0.75;;
67049;SDS011;53955;52.442;13.284;2022-07-04T13:49:10;1.35;;;0.60;;
67049;SDS011;53955;52.442;13.284;2022-07-04T13:51:37;2.15;;;0.68;;
67049;SDS011;53955;52.442;13.284;2022-07-04T13:54:04;1.40;;;0.70;;
67049;SDS011;53955;52.442;13.284;2022-07-04T13:56:30;1.95;;;0.50;;
67049;SDS011;53955;52.442;13.284;2022-07-04T13:58:58;0.98;;;0.57;;
67049;SDS011;53955;52.442;13.284;2022-07-04T14:01:25;1.50;;;0.70;;
67049;SDS011;53955;52.442;13.284;2022-07-04T14:03:52;1.00;;;0.60;;
67049;SDS011;53955;52.442;13.284;2022-07-04T14:06:20;1.75;;;0.80;;
67049;SDS011;53955;52.442;13.284;2022-07-04T14:08:47;3.72;;;0.65;;
67049;SDS011;53955;52.442;13.284;2022-07-04T14:11:14;1.77;;;0.50;;
67049;SDS011;53955;52.442;13.284;2022-07-04T14:13:40;1.92;;;0.80;;
67049;SDS011;53955;52.442;13.284;2022-07-04T14:16:07;2.38;;;0.65;;
67049;SDS011;53955;52.442;13.284;2022-07-04T14:18:34;1.80;;;0.60;;
67049;SDS011;53955;52.442;13.284;2022-07-04T14:21:01;0.90;;;0.55;;
67049;SDS011;53955;52.442;13.284;2022-07-04T14:23:29;1.08;;;0.70;;
67049;SDS011;53955;52.442;13.284;2022-07-04T14:26:09;1.42;;;0.88;;
67049;SDS011;53955;52.442;13.284;2022-07-04T14:28:38;0.70;;;0.52;;
67049;SDS011;53955;52.442;13.284;2022-07-04T14:31:05;3.65;;;0.60;;
67049;SDS011;53955;52.442;13.284;2022-07-04T14:33:32;2.55;;;0.73;;
67049;SDS011;53955;52.442;13.284;2022-07-04T14:35:59;1.52;;;0.50;;
67049;SDS011;53955;52.442;13.284;2022-07-04T14:38:26;3.33;;;0.60;;
67049;SDS011;53955;52.442;13.284;2022-07-04T14:40:54;2.15;;;0.70;;
67049;SDS011;53955;52.442;13.284;2022-07-04T14:43:20;1.50;;;0.55;;
67049;SDS011;53955;52.442;13.284;2022-07-04T14:45:47;1.65;;;0.60;;